sensor_id;sensor_type;location;lat;lon;timestamp;temperature;humidity
24103;DHT22;12278;53.058;9.028;2022-12-11T00:01:35;0.20;99.90
24103;DHT22;12278;53.058;9.028;2022-12-11T00:05:38;0.20;99.90
24103;DHT22;12278;53.058;9.028;2022-12-11T00:09:39;0.10;99.90
24103;DHT22;12278;53.058;9.028;2022-12-11T00:13:51;0.10;99.90
24103;DHT22;12278;53.058;9.028;2022-12-11T00:17:51;0.10;99.90
24103;DHT22;12278;53.058;9.028;2022-12-11T00:21:52;0.20;99.90
24103;DHT22;12278;53.058;9.028;2022-12-11T00:25:52;0.10;99.90
24103;DHT22;12278;53.058;9.028;2022-12-11T00:29:53;0.10;99.90
24103;DHT22;12278;53.058;9.028;2022-12-11T00:33:53;0.20;99.90
24103;DHT22;12278;53.058;9.028;2022-12-11T00:37:54;0.10;99.90
24103;DHT22;12278;53.058;9.028;2022-12-11T00:41:55;0.10;99.90
24103;DHT22;12278;53.058;9.028;2022-12-11T00:45:55;0.00;99.90
24103;DHT22;12278;53.058;9.028;2022-12-11T00:49:56;0.10;99.90
24103;DHT22;12278;53.058;9.028;2022-12-11T00:53:56;0.10;99.90
24103;DHT22;12278;53.058;9.028;2022-12-11T00:58:05;0.10;99.90
24103;DHT22;12278;53.058;9.028;2022-12-11T01:02:05;0.20;99.90
24103;DHT22;12278;53.058;9.028;2022-12-11T01:06:07;0.10;99.90
24103;DHT22;12278;53.058;9.028;2022-12-11T01:10:14;0.10;99.90
24103;DHT22;12278;53.058;9.028;2022-12-11T01:14:23;0.10;99.90
24103;DHT22;12278;53.058;9.028;2022-12-11T01:18:26;0.10;99.90
24103;DHT22;12278;53.058;9.028;2022-12-11T01:22:27;0.10;99.90
24103;DHT22;12278;53.058;9.028;2022-12-11T01:26:28;0.10;99.90
24103;DHT22;12278;53.058;9.028;2022-12-11T01:30:30;0.20;99.90
24103;DHT22;12278;53.058;9.028;2022-12-11T01:34:31;0.20;99.90
24103;DHT22;12278;53.058;9.028;2022-12-11T01:38:32;0.20;99.90
24103;DHT22;12278;53.058;9.028;2022-12-11T01:42:33;0.20;99.90
24103;DHT22;12278;53.058;9.028;2022-12-11T01:46:35;0.20;99.90
24103;DHT22;12278;53.058;9.028;2022-12-11T01:50:42;0.20;99.90
24103;DHT22;12278;53.058;9.028;2022-12-11T01:54:43;0.20;99.90
24103;DHT22;12278;53.058;9.028;2022-12-11T01:58:49;0.30;99.90
24103;DHT22;12278;53.058;9.028;2022-12-11T02:03:03;0.20;99.90
24103;DHT22;12278;53.058;9.028;2022-12-11T02:07:03;0.20;99.90
24103;DHT22;12278;53.058;9.028;2022-12-11T02:11:19;0.10;99.90
24103;DHT22;12278;53.058;9.028;2022-12-11T02:15:34;0.10;99.90
24103;DHT22;12278;53.058;9.028;2022-12-11T02:24:30;0.00;99.90
24103;DHT22;12278;53.058;9.028;2022-12-11T02:28:42;0.00;99.90
24103;DHT22;12278;53.058;9.028;2022-12-11T02:32:53;0.00;99.90
24103;DHT22;12278;53.058;9.028;2022-12-11T02:37:05;0.00;99.90
24103;DHT22;12278;53.058;9.028;2022-12-11T02:41:07;0.00;99.90
24103;DHT22;12278;53.058;9.028;2022-12-11T02:45:10;0.00;99.90
24103;DHT22;12278;53.058;9.028;2022-12-11T02:49:12;0.10;99.90
24103;DHT22;12278;53.058;9.028;2022-12-11T02:53:19;0.10;99.90
24103;DHT22;12278;53.058;9.028;2022-12-11T03:01:34;-0.10;99.90
24103;DHT22;12278;53.058;9.028;2022-12-11T03:05:35;-0.10;99.90
24103;DHT22;12278;53.058;9.028;2022-12-11T03:09:39;0.00;99.90
24103;DHT22;12278;53.058;9.028;2022-12-11T03:13:40;0.00;99.90
24103;DHT22;12278;53.058;9.028;2022-12-11T03:22:17;0.00;99.90
24103;DHT22;12278;53.058;9.028;2022-12-11T03:26:20;0.00;99.90
24103;DHT22;12278;53.058;9.028;2022-12-11T03:30:23;0.00;99.90
24103;DHT22;12278;53.058;9.028;2022-12-11T03:34:40;-0.10;99.90
24103;DHT22;12278;53.058;9.028;2022-12-11T03:38:49;0.00;99.90
24103;DHT22;12278;53.058;9.028;2022-12-11T03:42:51;-0.10;99.90
24103;DHT22;12278;53.058;9.028;2022-12-11T03:46:54;0.00;99.90
24103;DHT22;12278;53.058;9.028;2022-12-11T03:50:57;-0.10;99.90
24103;DHT22;12278;53.058;9.028;2022-12-11T03:55:00;-0.10;99.90
24103;DHT22;12278;53.058;9.028;2022-12-11T03:59:13;0.00;99.90
24103;DHT22;12278;53.058;9.028;2022-12-11T04:03:13;-0.10;99.90
24103;DHT22;12278;53.058;9.028;2022-12-11T04:07:15;-0.10;99.90
24103;DHT22;12278;53.058;9.028;2022-12-11T04:11:15;-0.10;99.90
24103;DHT22;12278;53.058;9.028;2022-12-11T04:15:34;0.00;99.90
24103;DHT22;12278;53.058;9.028;2022-12-11T04:19:42;0.00;99.90
24103;DHT22;12278;53.058;9.028;2022-12-11T04:24:01;-0.10;99.90
24103;DHT22;12278;53.058;9.028;2022-12-11T04:28:16;-0.10;99.90
24103;DHT22;12278;53.058;9.028;2022-12-11T04:32:17;0.00;99.90
24103;DHT22;12278;53.058;9.028;2022-12-11T04:36:18;0.00;99.90
24103;DHT22;12278;53.058;9.028;2022-12-11T04:40:19;0.00;99.90
24103;DHT22;12278;53.058;9.028;2022-12-11T04:44:21;0.00;99.90
24103;DHT22;12278;53.058;9.028;2022-12-11T04:48:21;-0.10;99.90
24103;DHT22;12278;53.058;9.028;2022-12-11T04:52:22;-0.10;99.90
24103;DHT22;12278;53.058;9.028;2022-12-11T04:56:29;-0.20;99.90
24103;DHT22;12278;53.058;9.028;2022-12-11T05:00:29;-0.10;99.90
24103;DHT22;12278;53.058;9.028;2022-12-11T05:04:32;-0.10;99.90
24103;DHT22;12278;53.058;9.028;2022-12-11T05:08:34;-0.10;99.90
24103;DHT22;12278;53.058;9.028;2022-12-11T05:12:38;0.10;99.90
24103;DHT22;12278;53.058;9.028;2022-12-11T05:16:38;0.00;99.90
24103;DHT22;12278;53.058;9.028;2022-12-11T05:20:39;-0.10;99.90
24103;DHT22;12278;53.058;9.028;2022-12-11T05:24:40;-0.10;99.90
24103;DHT22;12278;53.058;9.028;2022-12-11T05:28:40;-0.10;99.90
24103;DHT22;12278;53.058;9.028;2022-12-11T05:32:42;-0.10;99.90
24103;DHT22;12278;53.058;9.028;2022-12-11T05:36:43;-0.10;99.90
24103;DHT22;12278;53.058;9.028;2022-12-11T05:40:43;-0.10;99.90
24103;DHT22;12278;53.058;9.028;2022-12-11T05:44:44;-0.20;99.90
24103;DHT22;12278;53.058;9.028;2022-12-11T05:48:48;-0.20;99.90
24103;DHT22;12278;53.058;9.028;2022-12-11T05:52:49;-0.20;99.90
24103;DHT22;12278;53.058;9.028;2022-12-11T06:01:26;-0.30;99.90
24103;DHT22;12278;53.058;9.028;2022-12-11T06:05:27;-0.30;99.90
24103;DHT22;12278;53.058;9.028;2022-12-11T06:09:30;-0.20;99.90
24103;DHT22;12278;53.058;9.028;2022-12-11T06:13:31;-0.30;99.90
24103;DHT22;12278;53.058;9.028;2022-12-11T06:17:32;-0.20;99.90
24103;DHT22;12278;53.058;9.028;2022-12-11T06:21:33;-0.20;99.90
24103;DHT22;12278;53.058;9.028;2022-12-11T06:25:34;-0.20;99.90
24103;DHT22;12278;53.058;9.028;2022-12-11T06:29:37;-0.20;99.90
24103;DHT22;12278;53.058;9.028;2022-12-11T06:33:38;-0.20;99.90
24103;DHT22;12278;53.058;9.028;2022-12-11T06:37:39;-0.10;99.90
24103;DHT22;12278;53.058;9.028;2022-12-11T06:41:39;-0.30;99.90
24103;DHT22;12278;53.058;9.028;2022-12-11T06:45:40;-0.20;99.90
24103;DHT22;12278;53.058;9.028;2022-12-11T06:49:41;-0.30;99.90
24103;DHT22;12278;53.058;9.028;2022-12-11T06:53:55;-0.40;99.90
24103;DHT22;12278;53.058;9.028;2022-12-11T06:57:55;-0.30;99.90
24103;DHT22;12278;53.058;9.028;2022-12-11T07:01:56;-0.20;99.90
24103;DHT22;12278;53.058;9.028;2022-12-11T07:06:00;-0.20;99.90
24103;DHT22;12278;53.058;9.028;2022-12-11T07:10:02;-0.20;99.90
24103;DHT22;12278;53.058;9.028;2022-12-11T07:14:03;-0.20;99.90
24103;DHT22;12278;53.058;9.028;2022-12-11T07:18:03;-0.20;99.90
24103;DHT22;12278;53.058;9.028;2022-12-11T07:22:04;-0.20;99.90
24103;DHT22;12278;53.058;9.028;2022-12-11T07:26:06;-0.30;99.90
24103;DHT22;12278;53.058;9.028;2022-12-11T07:30:08;-0.30;99.90
24103;DHT22;12278;53.058;9.028;2022-12-11T07:34:11;-0.20;99.90
24103;DHT22;12278;53.058;9.028;2022-12-11T07:38:12;-0.20;99.90
24103;DHT22;12278;53.058;9.028;2022-12-11T07:42:12;-0.20;99.90
24103;DHT22;12278;53.058;9.028;2022-12-11T07:46:16;-0.10;99.90
24103;DHT22;12278;53.058;9.028;2022-12-11T07:50:29;-0.10;99.90
24103;DHT22;12278;53.058;9.028;2022-12-11T07:54:30;-0.20;99.90
24103;DHT22;12278;53.058;9.028;2022-12-11T07:58:30;-0.20;99.90
24103;DHT22;12278;53.058;9.028;2022-12-11T08:02:31;-0.20;99.90
24103;DHT22;12278;53.058;9.028;2022-12-11T08:06:34;-0.30;99.90
24103;DHT22;12278;53.058;9.028;2022-12-11T08:10:35;-0.20;99.90
24103;DHT22;12278;53.058;9.028;2022-12-11T08:14:36;-0.20;99.90
24103;DHT22;12278;53.058;9.028;2022-12-11T08:18:37;-0.20;99.90
24103;DHT22;12278;53.058;9.028;2022-12-11T08:22:38;-0.20;99.90
24103;DHT22;12278;53.058;9.028;2022-12-11T08:26:38;-0.20;99.90
24103;DHT22;12278;53.058;9.028;2022-12-11T08:30:39;-0.20;99.90
24103;DHT22;12278;53.058;9.028;2022-12-11T08:34:40;0.00;99.90
24103;DHT22;12278;53.058;9.028;2022-12-11T08:38:41;0.00;99.90
24103;DHT22;12278;53.058;9.028;2022-12-11T08:42:42;0.00;99.90
24103;DHT22;12278;53.058;9.028;2022-12-11T08:46:42;-0.10;99.90
24103;DHT22;12278;53.058;9.028;2022-12-11T08:50:43;0.00;99.90
24103;DHT22;12278;53.058;9.028;2022-12-11T08:54:44;-0.10;99.90
24103;DHT22;12278;53.058;9.028;2022-12-11T08:58:45;0.00;99.90
24103;DHT22;12278;53.058;9.028;2022-12-11T09:02:46;0.00;99.90
24103;DHT22;12278;53.058;9.028;2022-12-11T09:06:47;0.00;99.90
24103;DHT22;12278;53.058;9.028;2022-12-11T09:11:07;0.10;99.90
24103;DHT22;12278;53.058;9.028;2022-12-11T09:15:08;0.10;99.90
24103;DHT22;12278;53.058;9.028;2022-12-11T09:19:12;0.10;99.90
24103;DHT22;12278;53.058;9.028;2022-12-11T09:23:13;0.20;99.90
24103;DHT22;12278;53.058;9.028;2022-12-11T09:27:14;0.10;99.90
24103;DHT22;12278;53.058;9.028;2022-12-11T09:31:26;0.10;99.90
24103;DHT22;12278;53.058;9.028;2022-12-11T09:35:27;0.00;99.90
24103;DHT22;12278;53.058;9.028;2022-12-11T09:39:28;0.10;99.90
24103;DHT22;12278;53.058;9.028;2022-12-11T09:43:42;0.10;99.90
24103;DHT22;12278;53.058;9.028;2022-12-11T09:47:48;0.00;99.90
24103;DHT22;12278;53.058;9.028;2022-12-11T09:52:27;0.20;99.90
24103;DHT22;12278;53.058;9.028;2022-12-11T09:56:40;0.10;99.90
24103;DHT22;12278;53.058;9.028;2022-12-11T10:00:47;0.10;99.90
24103;DHT22;12278;53.058;9.028;2022-12-11T10:05:02;0.10;99.90
24103;DHT22;12278;53.058;9.028;2022-12-11T10:18:04;0.30;99.90
24103;DHT22;12278;53.058;9.028;2022-12-11T10:22:19;0.30;99.90
24103;DHT22;12278;53.058;9.028;2022-12-11T10:26:30;0.40;99.90
24103;DHT22;12278;53.058;9.028;2022-12-11T10:30:36;0.30;99.90
24103;DHT22;12278;53.058;9.028;2022-12-11T10:34:43;0.30;99.90
24103;DHT22;12278;53.058;9.028;2022-12-11T10:38:46;0.20;99.90
24103;DHT22;12278;53.058;9.028;2022-12-11T10:42:53;0.30;99.90
24103;DHT22;12278;53.058;9.028;2022-12-11T10:51:05;0.40;99.90
24103;DHT22;12278;53.058;9.028;2022-12-11T10:55:19;0.40;99.90
24103;DHT22;12278;53.058;9.028;2022-12-11T10:59:34;0.40;99.90
24103;DHT22;12278;53.058;9.028;2022-12-11T11:03:42;0.30;99.90
24103;DHT22;12278;53.058;9.028;2022-12-11T11:08:19;0.30;99.90
24103;DHT22;12278;53.058;9.028;2022-12-11T11:12:24;0.30;99.90
24103;DHT22;12278;53.058;9.028;2022-12-11T11:16:25;0.40;99.90
24103;DHT22;12278;53.058;9.028;2022-12-11T11:20:28;0.50;99.90
24103;DHT22;12278;53.058;9.028;2022-12-11T11:24:39;0.40;99.90
24103;DHT22;12278;53.058;9.028;2022-12-11T11:28:53;0.50;99.90
24103;DHT22;12278;53.058;9.028;2022-12-11T11:32:56;0.40;99.90
24103;DHT22;12278;53.058;9.028;2022-12-11T11:37:04;0.50;99.90
24103;DHT22;12278;53.058;9.028;2022-12-11T11:41:19;0.60;99.90
24103;DHT22;12278;53.058;9.028;2022-12-11T11:45:51;0.70;99.90
24103;DHT22;12278;53.058;9.028;2022-12-11T11:54:14;0.70;99.90
24103;DHT22;12278;53.058;9.028;2022-12-11T11:58:21;0.80;99.90
24103;DHT22;12278;53.058;9.028;2022-12-11T12:02:23;0.60;99.90
24103;DHT22;12278;53.058;9.028;2022-12-11T12:07:04;0.60;99.90
24103;DHT22;12278;53.058;9.028;2022-12-11T12:15:23;0.60;99.90
24103;DHT22;12278;53.058;9.028;2022-12-11T12:45:23;0.70;99.90
24103;DHT22;12278;53.058;9.028;2022-12-11T12:49:41;0.70;99.90
24103;DHT22;12278;53.058;9.028;2022-12-11T12:54:02;0.80;99.90
24103;DHT22;12278;53.058;9.028;2022-12-11T12:58:06;0.70;99.90
24103;DHT22;12278;53.058;9.028;2022-12-11T13:02:13;0.70;99.90
24103;DHT22;12278;53.058;9.028;2022-12-11T13:06:36;0.60;99.90
24103;DHT22;12278;53.058;9.028;2022-12-11T13:10:40;0.60;99.90
24103;DHT22;12278;53.058;9.028;2022-12-11T13:14:41;0.70;99.90
24103;DHT22;12278;53.058;9.028;2022-12-11T13:18:44;0.60;99.90
24103;DHT22;12278;53.058;9.028;2022-12-11T13:26:54;0.60;99.90
24103;DHT22;12278;53.058;9.028;2022-12-11T13:31:03;0.60;99.90
24103;DHT22;12278;53.058;9.028;2022-12-11T13:35:06;0.50;99.90
24103;DHT22;12278;53.058;9.028;2022-12-11T13:39:26;0.50;99.90
24103;DHT22;12278;53.058;9.028;2022-12-11T13:43:30;0.40;99.90
24103;DHT22;12278;53.058;9.028;2022-12-11T13:47:34;0.50;99.90
24103;DHT22;12278;53.058;9.028;2022-12-11T13:51:35;0.30;99.90
24103;DHT22;12278;53.058;9.028;2022-12-11T13:55:36;0.20;99.90
24103;DHT22;12278;53.058;9.028;2022-12-11T13:59:48;0.30;99.90
24103;DHT22;12278;53.058;9.028;2022-12-11T14:03:59;0.40;99.90
24103;DHT22;12278;53.058;9.028;2022-12-11T14:08:06;0.50;99.90
24103;DHT22;12278;53.058;9.028;2022-12-11T14:12:19;0.50;99.90
24103;DHT22;12278;53.058;9.028;2022-12-11T14:16:22;0.50;99.90
24103;DHT22;12278;53.058;9.028;2022-12-11T14:20:29;0.50;99.90
24103;DHT22;12278;53.058;9.028;2022-12-11T14:24:31;0.60;99.90
24103;DHT22;12278;53.058;9.028;2022-12-11T14:28:37;0.60;99.90
24103;DHT22;12278;53.058;9.028;2022-12-11T14:32:42;0.50;99.90
24103;DHT22;12278;53.058;9.028;2022-12-11T14:36:45;0.40;99.90
24103;DHT22;12278;53.058;9.028;2022-12-11T14:40:50;0.50;99.90
24103;DHT22;12278;53.058;9.028;2022-12-11T14:53:27;0.40;99.90
24103;DHT22;12278;53.058;9.028;2022-12-11T14:57:29;0.40;99.90
24103;DHT22;12278;53.058;9.028;2022-12-11T15:01:44;0.30;99.90
24103;DHT22;12278;53.058;9.028;2022-12-11T15:05:55;0.20;99.90
24103;DHT22;12278;53.058;9.028;2022-12-11T15:09:57;0.10;99.90
24103;DHT22;12278;53.058;9.028;2022-12-11T15:14:00;0.00;99.90
24103;DHT22;12278;53.058;9.028;2022-12-11T15:18:06;-0.10;99.90
24103;DHT22;12278;53.058;9.028;2022-12-11T15:22:13;-0.20;99.90
24103;DHT22;12278;53.058;9.028;2022-12-11T15:26:15;-0.30;99.90
24103;DHT22;12278;53.058;9.028;2022-12-11T15:34:22;-0.50;99.90
24103;DHT22;12278;53.058;9.028;2022-12-11T15:38:34;-0.50;99.90
24103;DHT22;12278;53.058;9.028;2022-12-11T15:42:40;-0.50;99.90
24103;DHT22;12278;53.058;9.028;2022-12-11T15:46:41;-0.60;99.90
24103;DHT22;12278;53.058;9.028;2022-12-11T15:50:42;-0.60;99.90
24103;DHT22;12278;53.058;9.028;2022-12-11T15:54:42;-0.60;99.90
24103;DHT22;12278;53.058;9.028;2022-12-11T15:58:44;-0.60;99.90
24103;DHT22;12278;53.058;9.028;2022-12-11T16:02:46;-0.60;99.90
24103;DHT22;12278;53.058;9.028;2022-12-11T16:06:47;-0.60;99.90
24103;DHT22;12278;53.058;9.028;2022-12-11T16:10:51;-0.70;99.90
24103;DHT22;12278;53.058;9.028;2022-12-11T16:14:52;-0.60;99.90
24103;DHT22;12278;53.058;9.028;2022-12-11T16:18:53;-0.70;99.90
24103;DHT22;12278;53.058;9.028;2022-12-11T16:22:53;-0.60;99.90
24103;DHT22;12278;53.058;9.028;2022-12-11T16:26:54;-0.50;99.90
24103;DHT22;12278;53.058;9.028;2022-12-11T16:30:55;-0.40;99.90
24103;DHT22;12278;53.058;9.028;2022-12-11T16:34:57;-0.40;99.90
24103;DHT22;12278;53.058;9.028;2022-12-11T16:39:01;-0.40;99.90
24103;DHT22;12278;53.058;9.028;2022-12-11T16:43:03;-0.40;99.90
24103;DHT22;12278;53.058;9.028;2022-12-11T16:47:04;-0.40;99.90
24103;DHT22;12278;53.058;9.028;2022-12-11T16:51:05;-0.40;99.90
24103;DHT22;12278;53.058;9.028;2022-12-11T16:55:07;-0.40;99.90
24103;DHT22;12278;53.058;9.028;2022-12-11T16:59:08;-0.40;99.90
24103;DHT22;12278;53.058;9.028;2022-12-11T17:03:09;-0.60;99.90
24103;DHT22;12278;53.058;9.028;2022-12-11T17:07:09;-0.60;99.90
24103;DHT22;12278;53.058;9.028;2022-12-11T17:11:16;-0.60;99.90
24103;DHT22;12278;53.058;9.028;2022-12-11T17:15:17;-0.60;99.90
24103;DHT22;12278;53.058;9.028;2022-12-11T17:19:20;-0.60;99.90
24103;DHT22;12278;53.058;9.028;2022-12-11T17:23:36;-0.70;99.90
24103;DHT22;12278;53.058;9.028;2022-12-11T17:27:37;-0.70;99.90
24103;DHT22;12278;53.058;9.028;2022-12-11T17:31:38;-0.70;99.90
24103;DHT22;12278;53.058;9.028;2022-12-11T17:35:38;-0.80;99.90
24103;DHT22;12278;53.058;9.028;2022-12-11T17:39:39;-0.80;99.90
24103;DHT22;12278;53.058;9.028;2022-12-11T17:43:40;-0.90;99.90
24103;DHT22;12278;53.058;9.028;2022-12-11T17:47:41;-0.80;99.90
24103;DHT22;12278;53.058;9.028;2022-12-11T17:51:42;-0.70;99.90
24103;DHT22;12278;53.058;9.028;2022-12-11T17:55:43;-0.70;99.90
24103;DHT22;12278;53.058;9.028;2022-12-11T17:59:46;-0.80;99.90
24103;DHT22;12278;53.058;9.028;2022-12-11T18:03:58;-0.90;99.90
24103;DHT22;12278;53.058;9.028;2022-12-11T18:08:01;-0.90;99.90
24103;DHT22;12278;53.058;9.028;2022-12-11T18:12:02;-1.00;99.90
24103;DHT22;12278;53.058;9.028;2022-12-11T18:20:05;-1.30;99.90
24103;DHT22;12278;53.058;9.028;2022-12-11T18:24:07;-1.30;99.90
24103;DHT22;12278;53.058;9.028;2022-12-11T18:28:23;-1.30;99.90
24103;DHT22;12278;53.058;9.028;2022-12-11T18:32:24;-1.40;99.90
24103;DHT22;12278;53.058;9.028;2022-12-11T18:36:27;-1.50;99.90
24103;DHT22;12278;53.058;9.028;2022-12-11T18:40:27;-1.50;99.90
24103;DHT22;12278;53.058;9.028;2022-12-11T18:44:28;-1.30;99.90
24103;DHT22;12278;53.058;9.028;2022-12-11T18:48:30;-1.20;99.90
24103;DHT22;12278;53.058;9.028;2022-12-11T18:52:30;-1.20;99.90
24103;DHT22;12278;53.058;9.028;2022-12-11T18:56:31;-1.20;99.90
24103;DHT22;12278;53.058;9.028;2022-12-11T19:00:32;-1.30;99.90
24103;DHT22;12278;53.058;9.028;2022-12-11T19:04:32;-1.30;99.90
24103;DHT22;12278;53.058;9.028;2022-12-11T19:08:35;-1.40;99.90
24103;DHT22;12278;53.058;9.028;2022-12-11T19:12:36;-1.30;99.90
24103;DHT22;12278;53.058;9.028;2022-12-11T19:16:39;-1.10;99.90
24103;DHT22;12278;53.058;9.028;2022-12-11T19:20:40;-1.20;99.90
24103;DHT22;12278;53.058;9.028;2022-12-11T19:24:43;-1.20;99.90
24103;DHT22;12278;53.058;9.028;2022-12-11T19:28:44;-1.20;99.90
24103;DHT22;12278;53.058;9.028;2022-12-11T19:32:51;-1.20;99.90
24103;DHT22;12278;53.058;9.028;2022-12-11T19:36:53;-1.20;99.90
24103;DHT22;12278;53.058;9.028;2022-12-11T19:40:55;-1.20;99.90
24103;DHT22;12278;53.058;9.028;2022-12-11T19:44:56;-1.10;99.90
24103;DHT22;12278;53.058;9.028;2022-12-11T19:48:58;-1.10;99.90
24103;DHT22;12278;53.058;9.028;2022-12-11T19:52:59;-1.20;99.90
24103;DHT22;12278;53.058;9.028;2022-12-11T19:57:00;-1.20;99.90
24103;DHT22;12278;53.058;9.028;2022-12-11T20:01:01;-1.30;99.90
24103;DHT22;12278;53.058;9.028;2022-12-11T20:05:02;-1.30;99.90
24103;DHT22;12278;53.058;9.028;2022-12-11T20:09:04;-1.30;99.90
24103;DHT22;12278;53.058;9.028;2022-12-11T20:13:05;-1.40;99.90
24103;DHT22;12278;53.058;9.028;2022-12-11T20:17:06;-1.50;99.90
24103;DHT22;12278;53.058;9.028;2022-12-11T20:21:10;-1.50;99.90
24103;DHT22;12278;53.058;9.028;2022-12-11T20:25:17;-1.40;99.90
24103;DHT22;12278;53.058;9.028;2022-12-11T20:29:18;-1.50;99.90
24103;DHT22;12278;53.058;9.028;2022-12-11T20:33:19;-1.40;99.90
24103;DHT22;12278;53.058;9.028;2022-12-11T20:37:20;-1.40;99.90
24103;DHT22;12278;53.058;9.028;2022-12-11T20:41:23;-1.40;99.90
24103;DHT22;12278;53.058;9.028;2022-12-11T20:45:36;-1.50;99.90
24103;DHT22;12278;53.058;9.028;2022-12-11T20:49:36;-1.50;99.90
24103;DHT22;12278;53.058;9.028;2022-12-11T20:53:38;-1.50;99.90
24103;DHT22;12278;53.058;9.028;2022-12-11T20:57:53;-1.50;99.90
24103;DHT22;12278;53.058;9.028;2022-12-11T21:01:56;-1.40;99.90
24103;DHT22;12278;53.058;9.028;2022-12-11T21:05:57;-1.40;99.90
24103;DHT22;12278;53.058;9.028;2022-12-11T21:10:11;-1.30;99.90
24103;DHT22;12278;53.058;9.028;2022-12-11T21:14:13;-1.20;99.90
24103;DHT22;12278;53.058;9.028;2022-12-11T21:18:14;-1.20;99.90
24103;DHT22;12278;53.058;9.028;2022-12-11T21:22:15;-1.10;99.90
24103;DHT22;12278;53.058;9.028;2022-12-11T21:26:16;-1.10;99.90
24103;DHT22;12278;53.058;9.028;2022-12-11T21:30:16;-1.10;99.90
24103;DHT22;12278;53.058;9.028;2022-12-11T21:34:18;-1.10;99.90
24103;DHT22;12278;53.058;9.028;2022-12-11T21:38:19;-1.20;99.90
24103;DHT22;12278;53.058;9.028;2022-12-11T21:42:21;-1.20;99.90
24103;DHT22;12278;53.058;9.028;2022-12-11T21:46:25;-1.30;99.90
24103;DHT22;12278;53.058;9.028;2022-12-11T21:50:26;-1.30;99.90
24103;DHT22;12278;53.058;9.028;2022-12-11T21:54:34;-1.40;99.90
24103;DHT22;12278;53.058;9.028;2022-12-11T21:58:36;-1.40;99.90
24103;DHT22;12278;53.058;9.028;2022-12-11T22:02:37;-1.60;99.90
24103;DHT22;12278;53.058;9.028;2022-12-11T22:06:38;-1.90;99.90
24103;DHT22;12278;53.058;9.028;2022-12-11T22:10:41;-1.90;99.90
24103;DHT22;12278;53.058;9.028;2022-12-11T22:14:44;-1.90;99.90
24103;DHT22;12278;53.058;9.028;2022-12-11T22:18:46;-2.00;99.90
24103;DHT22;12278;53.058;9.028;2022-12-11T22:22:46;-2.10;99.90
24103;DHT22;12278;53.058;9.028;2022-12-11T22:26:58;-2.10;99.90
24103;DHT22;12278;53.058;9.028;2022-12-11T22:30:59;-2.20;99.90
24103;DHT22;12278;53.058;9.028;2022-12-11T22:35:00;-2.20;99.90
24103;DHT22;12278;53.058;9.028;2022-12-11T22:39:01;-2.40;99.90
24103;DHT22;12278;53.058;9.028;2022-12-11T22:43:19;-2.40;99.90
24103;DHT22;12278;53.058;9.028;2022-12-11T22:47:19;-2.60;99.90
24103;DHT22;12278;53.058;9.028;2022-12-11T22:51:20;-2.80;99.90
24103;DHT22;12278;53.058;9.028;2022-12-11T22:55:22;-2.80;99.90
24103;DHT22;12278;53.058;9.028;2022-12-11T22:59:30;-2.90;99.90
24103;DHT22;12278;53.058;9.028;2022-12-11T23:03:30;-2.70;99.90
24103;DHT22;12278;53.058;9.028;2022-12-11T23:07:31;-2.70;99.90
24103;DHT22;12278;53.058;9.028;2022-12-11T23:11:36;-2.80;99.90
24103;DHT22;12278;53.058;9.028;2022-12-11T23:15:37;-2.80;99.90
24103;DHT22;12278;53.058;9.028;2022-12-11T23:19:38;-3.00;99.90
24103;DHT22;12278;53.058;9.028;2022-12-11T23:23:48;-3.00;99.90
24103;DHT22;12278;53.058;9.028;2022-12-11T23:27:49;-3.00;99.90
24103;DHT22;12278;53.058;9.028;2022-12-11T23:31:49;-3.00;99.90
24103;DHT22;12278;53.058;9.028;2022-12-11T23:35:50;-3.10;99.90
24103;DHT22;12278;53.058;9.028;2022-12-11T23:39:50;-3.20;99.90
24103;DHT22;12278;53.058;9.028;2022-12-11T23:43:51;-3.10;99.90
24103;DHT22;12278;53.058;9.028;2022-12-11T23:47:52;-3.20;99.90
24103;DHT22;12278;53.058;9.028;2022-12-11T23:51:52;-3.20;99.90
24103;DHT22;12278;53.058;9.028;2022-12-11T23:56:06;-3.20;99.90
